sensor_id;sensor_type;location;lat;lon;timestamp;temperature;humidity
25550;DHT22;13444;50.562;7.262;2023-02-28T00:01:09;0.60;99.90
25550;DHT22;13444;50.562;7.262;2023-02-28T00:03:34;0.60;99.90
25550;DHT22;13444;50.562;7.262;2023-02-28T00:06:05;0.60;99.90
25550;DHT22;13444;50.562;7.262;2023-02-28T00:08:31;0.70;99.90
25550;DHT22;13444;50.562;7.262;2023-02-28T00:11:01;0.70;99.90
25550;DHT22;13444;50.562;7.262;2023-02-28T00:13:27;0.70;99.90
25550;DHT22;13444;50.562;7.262;2023-02-28T00:16:05;0.70;99.90
25550;DHT22;13444;50.562;7.262;2023-02-28T00:18:31;0.70;99.90
25550;DHT22;13444;50.562;7.262;2023-02-28T00:20:57;0.70;99.90
25550;DHT22;13444;50.562;7.262;2023-02-28T00:23:23;0.70;99.90
25550;DHT22;13444;50.562;7.262;2023-02-28T00:25:49;0.70;99.90
25550;DHT22;13444;50.562;7.262;2023-02-28T00:28:15;0.60;99.90
25550;DHT22;13444;50.562;7.262;2023-02-28T00:30:40;0.60;99.90
25550;DHT22;13444;50.562;7.262;2023-02-28T00:33:07;0.60;99.90
25550;DHT22;13444;50.562;7.262;2023-02-28T00:35:32;0.60;99.90
25550;DHT22;13444;50.562;7.262;2023-02-28T00:37:58;0.60;99.90
25550;DHT22;13444;50.562;7.262;2023-02-28T00:40:23;0.70;99.90
25550;DHT22;13444;50.562;7.262;2023-02-28T00:42:49;0.60;99.90
25550;DHT22;13444;50.562;7.262;2023-02-28T00:45:15;0.60;99.90
25550;DHT22;13444;50.562;7.262;2023-02-28T00:47:40;0.60;99.90
25550;DHT22;13444;50.562;7.262;2023-02-28T00:50:06;0.60;99.90
25550;DHT22;13444;50.562;7.262;2023-02-28T00:52:32;0.60;99.90
25550;DHT22;13444;50.562;7.262;2023-02-28T00:54:57;0.60;99.90
25550;DHT22;13444;50.562;7.262;2023-02-28T00:57:23;0.70;99.90
25550;DHT22;13444;50.562;7.262;2023-02-28T00:59:49;0.70;99.90
25550;DHT22;13444;50.562;7.262;2023-02-28T01:02:14;0.70;99.90
25550;DHT22;13444;50.562;7.262;2023-02-28T01:04:40;0.70;99.90
25550;DHT22;13444;50.562;7.262;2023-02-28T01:07:05;0.80;99.90
25550;DHT22;13444;50.562;7.262;2023-02-28T01:09:31;0.80;99.90
25550;DHT22;13444;50.562;7.262;2023-02-28T01:11:56;0.80;99.90
25550;DHT22;13444;50.562;7.262;2023-02-28T01:14:22;0.80;99.90
25550;DHT22;13444;50.562;7.262;2023-02-28T01:16:47;0.90;99.90
25550;DHT22;13444;50.562;7.262;2023-02-28T01:19:13;0.90;99.90
25550;DHT22;13444;50.562;7.262;2023-02-28T01:21:39;0.90;99.90
25550;DHT22;13444;50.562;7.262;2023-02-28T01:24:05;0.90;99.90
25550;DHT22;13444;50.562;7.262;2023-02-28T01:26:31;0.90;99.90
25550;DHT22;13444;50.562;7.262;2023-02-28T01:28:57;0.90;99.90
25550;DHT22;13444;50.562;7.262;2023-02-28T01:31:22;1.00;99.90
25550;DHT22;13444;50.562;7.262;2023-02-28T01:33:48;1.00;99.90
25550;DHT22;13444;50.562;7.262;2023-02-28T01:36:17;0.90;99.90
25550;DHT22;13444;50.562;7.262;2023-02-28T01:38:43;0.90;99.90
25550;DHT22;13444;50.562;7.262;2023-02-28T01:41:16;0.90;99.90
25550;DHT22;13444;50.562;7.262;2023-02-28T01:46:07;0.90;99.90
25550;DHT22;13444;50.562;7.262;2023-02-28T01:48:38;0.80;99.90
25550;DHT22;13444;50.562;7.262;2023-02-28T01:51:10;0.80;99.90
25550;DHT22;13444;50.562;7.262;2023-02-28T01:53:42;0.80;99.90
25550;DHT22;13444;50.562;7.262;2023-02-28T01:56:10;0.70;99.90
25550;DHT22;13444;50.562;7.262;2023-02-28T01:58:37;0.70;99.90
25550;DHT22;13444;50.562;7.262;2023-02-28T02:01:03;0.70;99.90
25550;DHT22;13444;50.562;7.262;2023-02-28T02:03:32;0.70;99.90
25550;DHT22;13444;50.562;7.262;2023-02-28T02:06:02;0.60;99.90
25550;DHT22;13444;50.562;7.262;2023-02-28T02:08:29;0.50;99.90
25550;DHT22;13444;50.562;7.262;2023-02-28T02:11:00;0.50;99.90
25550;DHT22;13444;50.562;7.262;2023-02-28T02:16:43;0.40;99.90
25550;DHT22;13444;50.562;7.262;2023-02-28T02:25:11;0.30;99.90
25550;DHT22;13444;50.562;7.262;2023-02-28T02:28:13;0.30;99.90
25550;DHT22;13444;50.562;7.262;2023-02-28T02:30:55;0.30;99.90
25550;DHT22;13444;50.562;7.262;2023-02-28T02:36:22;0.30;99.90
25550;DHT22;13444;50.562;7.262;2023-02-28T02:38:52;0.30;99.90
25550;DHT22;13444;50.562;7.262;2023-02-28T02:41:36;0.30;99.90
25550;DHT22;13444;50.562;7.262;2023-02-28T02:44:25;0.30;99.90
25550;DHT22;13444;50.562;7.262;2023-02-28T02:47:03;0.30;99.90
25550;DHT22;13444;50.562;7.262;2023-02-28T02:49:36;0.30;99.90
25550;DHT22;13444;50.562;7.262;2023-02-28T02:52:06;0.30;99.90
25550;DHT22;13444;50.562;7.262;2023-02-28T02:54:35;0.30;99.90
25550;DHT22;13444;50.562;7.262;2023-02-28T02:57:10;0.30;99.90
25550;DHT22;13444;50.562;7.262;2023-02-28T02:59:38;0.20;99.90
25550;DHT22;13444;50.562;7.262;2023-02-28T03:02:06;0.10;99.90
25550;DHT22;13444;50.562;7.262;2023-02-28T03:04:40;0.10;99.90
25550;DHT22;13444;50.562;7.262;2023-02-28T03:07:07;0.10;99.90
25550;DHT22;13444;50.562;7.262;2023-02-28T03:09:34;0.10;99.90
25550;DHT22;13444;50.562;7.262;2023-02-28T03:12:01;0.10;99.90
25550;DHT22;13444;50.562;7.262;2023-02-28T03:14:59;0.00;99.90
25550;DHT22;13444;50.562;7.262;2023-02-28T03:18:02;0.00;99.90
25550;DHT22;13444;50.562;7.262;2023-02-28T03:20:50;0.00;99.90
25550;DHT22;13444;50.562;7.262;2023-02-28T03:23:27;0.00;99.90
25550;DHT22;13444;50.562;7.262;2023-02-28T03:26:07;0.00;99.90
25550;DHT22;13444;50.562;7.262;2023-02-28T03:28:45;-0.10;99.90
25550;DHT22;13444;50.562;7.262;2023-02-28T03:31:21;-0.10;99.90
25550;DHT22;13444;50.562;7.262;2023-02-28T03:33:54;-0.10;99.90
25550;DHT22;13444;50.562;7.262;2023-02-28T03:36:25;-0.10;99.90
25550;DHT22;13444;50.562;7.262;2023-02-28T03:39:02;-0.10;99.90
25550;DHT22;13444;50.562;7.262;2023-02-28T03:44:05;-0.10;99.90
25550;DHT22;13444;50.562;7.262;2023-02-28T03:46:34;-0.10;99.90
25550;DHT22;13444;50.562;7.262;2023-02-28T03:49:19;-0.10;99.90
25550;DHT22;13444;50.562;7.262;2023-02-28T03:51:46;-0.10;99.90
25550;DHT22;13444;50.562;7.262;2023-02-28T03:54:15;-0.10;99.90
25550;DHT22;13444;50.562;7.262;2023-02-28T03:56:49;-0.20;99.90
25550;DHT22;13444;50.562;7.262;2023-02-28T03:59:32;-0.20;99.90
25550;DHT22;13444;50.562;7.262;2023-02-28T04:01:59;-0.20;99.90
25550;DHT22;13444;50.562;7.262;2023-02-28T04:04:25;-0.20;99.90
25550;DHT22;13444;50.562;7.262;2023-02-28T04:06:52;-0.20;99.90
25550;DHT22;13444;50.562;7.262;2023-02-28T04:09:18;-0.20;99.90
25550;DHT22;13444;50.562;7.262;2023-02-28T04:11:50;-0.20;99.90
25550;DHT22;13444;50.562;7.262;2023-02-28T04:14:21;-0.20;99.90
25550;DHT22;13444;50.562;7.262;2023-02-28T04:16:47;-0.30;99.90
25550;DHT22;13444;50.562;7.262;2023-02-28T04:19:13;-0.30;99.90
25550;DHT22;13444;50.562;7.262;2023-02-28T04:21:42;-0.30;99.90
25550;DHT22;13444;50.562;7.262;2023-02-28T04:24:11;-0.40;99.90
25550;DHT22;13444;50.562;7.262;2023-02-28T04:26:40;-0.30;99.90
25550;DHT22;13444;50.562;7.262;2023-02-28T04:29:06;-0.40;99.90
25550;DHT22;13444;50.562;7.262;2023-02-28T04:31:33;-0.40;99.90
25550;DHT22;13444;50.562;7.262;2023-02-28T04:33:59;-0.40;99.90
25550;DHT22;13444;50.562;7.262;2023-02-28T04:36:25;-0.50;99.90
25550;DHT22;13444;50.562;7.262;2023-02-28T04:38:50;-0.50;99.90
25550;DHT22;13444;50.562;7.262;2023-02-28T04:41:16;-0.50;99.90
25550;DHT22;13444;50.562;7.262;2023-02-28T04:43:42;-0.50;99.90
25550;DHT22;13444;50.562;7.262;2023-02-28T04:46:11;-0.50;99.90
25550;DHT22;13444;50.562;7.262;2023-02-28T04:48:38;-0.50;99.90
25550;DHT22;13444;50.562;7.262;2023-02-28T04:51:06;-0.50;99.90
25550;DHT22;13444;50.562;7.262;2023-02-28T04:53:32;-0.50;99.90
25550;DHT22;13444;50.562;7.262;2023-02-28T04:55:58;-0.50;99.90
25550;DHT22;13444;50.562;7.262;2023-02-28T04:58:24;-0.50;99.90
25550;DHT22;13444;50.562;7.262;2023-02-28T05:00:51;-0.50;99.90
25550;DHT22;13444;50.562;7.262;2023-02-28T05:03:17;-0.50;99.90
25550;DHT22;13444;50.562;7.262;2023-02-28T05:05:42;-0.50;99.90
25550;DHT22;13444;50.562;7.262;2023-02-28T05:08:08;-0.50;99.90
25550;DHT22;13444;50.562;7.262;2023-02-28T05:10:35;-0.50;99.90
25550;DHT22;13444;50.562;7.262;2023-02-28T05:13:01;-0.50;99.90
25550;DHT22;13444;50.562;7.262;2023-02-28T05:15:26;-0.50;99.90
25550;DHT22;13444;50.562;7.262;2023-02-28T05:17:52;-0.60;99.90
25550;DHT22;13444;50.562;7.262;2023-02-28T05:20:18;-0.60;99.90
25550;DHT22;13444;50.562;7.262;2023-02-28T05:22:43;-0.70;99.90
25550;DHT22;13444;50.562;7.262;2023-02-28T05:25:16;-0.70;99.90
25550;DHT22;13444;50.562;7.262;2023-02-28T05:27:41;-0.70;99.90
25550;DHT22;13444;50.562;7.262;2023-02-28T05:30:08;-0.70;99.90
25550;DHT22;13444;50.562;7.262;2023-02-28T05:32:36;-0.70;99.90
25550;DHT22;13444;50.562;7.262;2023-02-28T05:35:02;-0.70;99.90
25550;DHT22;13444;50.562;7.262;2023-02-28T05:37:28;-0.70;99.90
25550;DHT22;13444;50.562;7.262;2023-02-28T05:39:53;-0.80;99.90
25550;DHT22;13444;50.562;7.262;2023-02-28T05:42:19;-0.70;99.90
25550;DHT22;13444;50.562;7.262;2023-02-28T05:44:44;-0.80;99.90
25550;DHT22;13444;50.562;7.262;2023-02-28T05:47:10;-0.80;99.90
25550;DHT22;13444;50.562;7.262;2023-02-28T05:49:35;-0.80;99.90
25550;DHT22;13444;50.562;7.262;2023-02-28T05:52:01;-0.80;99.90
25550;DHT22;13444;50.562;7.262;2023-02-28T05:54:26;-0.80;99.90
25550;DHT22;13444;50.562;7.262;2023-02-28T05:56:52;-0.80;99.90
25550;DHT22;13444;50.562;7.262;2023-02-28T05:59:17;-0.80;99.90
25550;DHT22;13444;50.562;7.262;2023-02-28T06:01:46;-0.80;99.90
25550;DHT22;13444;50.562;7.262;2023-02-28T06:04:16;-0.80;99.90
25550;DHT22;13444;50.562;7.262;2023-02-28T06:06:45;-0.80;99.90
25550;DHT22;13444;50.562;7.262;2023-02-28T06:09:10;-0.80;99.90
25550;DHT22;13444;50.562;7.262;2023-02-28T06:11:36;-0.80;99.90
25550;DHT22;13444;50.562;7.262;2023-02-28T06:14:03;-0.80;99.90
25550;DHT22;13444;50.562;7.262;2023-02-28T06:16:29;-0.90;99.90
25550;DHT22;13444;50.562;7.262;2023-02-28T06:18:57;-0.90;99.90
25550;DHT22;13444;50.562;7.262;2023-02-28T06:21:23;-0.90;99.90
25550;DHT22;13444;50.562;7.262;2023-02-28T06:23:49;-1.00;99.90
25550;DHT22;13444;50.562;7.262;2023-02-28T06:26:15;-1.00;99.90
25550;DHT22;13444;50.562;7.262;2023-02-28T06:28:41;-1.00;99.90
25550;DHT22;13444;50.562;7.262;2023-02-28T06:31:11;-1.00;99.90
25550;DHT22;13444;50.562;7.262;2023-02-28T06:33:38;-1.00;99.90
25550;DHT22;13444;50.562;7.262;2023-02-28T06:36:05;-1.00;99.90
25550;DHT22;13444;50.562;7.262;2023-02-28T06:38:31;-1.00;99.90
25550;DHT22;13444;50.562;7.262;2023-02-28T06:40:58;-1.10;99.90
25550;DHT22;13444;50.562;7.262;2023-02-28T06:43:28;-1.00;99.90
25550;DHT22;13444;50.562;7.262;2023-02-28T06:45:55;-1.00;99.90
25550;DHT22;13444;50.562;7.262;2023-02-28T06:48:21;-1.00;99.90
25550;DHT22;13444;50.562;7.262;2023-02-28T06:50:47;-1.00;99.90
25550;DHT22;13444;50.562;7.262;2023-02-28T06:53:13;-1.10;99.90
25550;DHT22;13444;50.562;7.262;2023-02-28T06:55:39;-1.00;99.90
25550;DHT22;13444;50.562;7.262;2023-02-28T06:58:05;-1.00;99.90
25550;DHT22;13444;50.562;7.262;2023-02-28T07:00:45;-1.00;99.90
25550;DHT22;13444;50.562;7.262;2023-02-28T07:03:12;-1.00;99.90
25550;DHT22;13444;50.562;7.262;2023-02-28T07:05:38;-1.00;99.90
25550;DHT22;13444;50.562;7.262;2023-02-28T07:08:05;-1.10;99.90
25550;DHT22;13444;50.562;7.262;2023-02-28T07:10:32;-1.00;99.90
25550;DHT22;13444;50.562;7.262;2023-02-28T07:12:59;-1.00;99.90
25550;DHT22;13444;50.562;7.262;2023-02-28T07:15:24;-1.00;99.90
25550;DHT22;13444;50.562;7.262;2023-02-28T07:17:50;-0.90;99.90
25550;DHT22;13444;50.562;7.262;2023-02-28T07:20:16;-0.80;99.90
25550;DHT22;13444;50.562;7.262;2023-02-28T07:22:41;-0.80;99.90
25550;DHT22;13444;50.562;7.262;2023-02-28T07:25:07;-0.70;99.90
25550;DHT22;13444;50.562;7.262;2023-02-28T07:27:33;-0.60;99.90
25550;DHT22;13444;50.562;7.262;2023-02-28T07:29:59;-0.50;99.90
25550;DHT22;13444;50.562;7.262;2023-02-28T07:32:27;-0.40;99.90
25550;DHT22;13444;50.562;7.262;2023-02-28T07:34:53;-0.30;99.90
25550;DHT22;13444;50.562;7.262;2023-02-28T07:37:19;-0.10;99.90
25550;DHT22;13444;50.562;7.262;2023-02-28T07:39:45;0.10;99.90
25550;DHT22;13444;50.562;7.262;2023-02-28T07:42:10;0.20;99.90
25550;DHT22;13444;50.562;7.262;2023-02-28T07:44:41;0.40;99.90
25550;DHT22;13444;50.562;7.262;2023-02-28T07:47:09;0.60;99.90
25550;DHT22;13444;50.562;7.262;2023-02-28T07:49:38;0.80;99.90
25550;DHT22;13444;50.562;7.262;2023-02-28T07:52:05;1.00;99.90
25550;DHT22;13444;50.562;7.262;2023-02-28T07:54:32;1.20;99.90
25550;DHT22;13444;50.562;7.262;2023-02-28T07:56:58;1.40;99.90
25550;DHT22;13444;50.562;7.262;2023-02-28T07:59:24;1.70;99.90
25550;DHT22;13444;50.562;7.262;2023-02-28T08:01:50;2.00;99.90
25550;DHT22;13444;50.562;7.262;2023-02-28T08:04:17;2.20;99.90
25550;DHT22;13444;50.562;7.262;2023-02-28T08:06:42;2.40;99.90
25550;DHT22;13444;50.562;7.262;2023-02-28T08:09:08;2.80;99.90
25550;DHT22;13444;50.562;7.262;2023-02-28T08:11:34;3.10;99.90
25550;DHT22;13444;50.562;7.262;2023-02-28T08:14:00;3.50;99.90
25550;DHT22;13444;50.562;7.262;2023-02-28T08:16:25;4.00;99.90
25550;DHT22;13444;50.562;7.262;2023-02-28T08:18:51;4.20;99.90
25550;DHT22;13444;50.562;7.262;2023-02-28T08:21:17;4.60;99.90
25550;DHT22;13444;50.562;7.262;2023-02-28T08:23:43;5.00;99.90
25550;DHT22;13444;50.562;7.262;2023-02-28T08:26:09;5.30;99.90
25550;DHT22;13444;50.562;7.262;2023-02-28T08:28:34;5.50;99.90
25550;DHT22;13444;50.562;7.262;2023-02-28T08:31:00;5.80;99.90
25550;DHT22;13444;50.562;7.262;2023-02-28T08:33:27;5.60;99.90
25550;DHT22;13444;50.562;7.262;2023-02-28T08:35:54;5.60;99.90
25550;DHT22;13444;50.562;7.262;2023-02-28T08:38:20;5.30;99.90
25550;DHT22;13444;50.562;7.262;2023-02-28T08:40:45;4.90;99.90
25550;DHT22;13444;50.562;7.262;2023-02-28T08:43:11;4.70;99.90
25550;DHT22;13444;50.562;7.262;2023-02-28T08:45:36;4.60;99.90
25550;DHT22;13444;50.562;7.262;2023-02-28T08:48:02;4.60;99.90
25550;DHT22;13444;50.562;7.262;2023-02-28T08:50:27;4.90;99.90
25550;DHT22;13444;50.562;7.262;2023-02-28T08:52:53;4.90;99.90
25550;DHT22;13444;50.562;7.262;2023-02-28T08:55:18;4.70;99.90
25550;DHT22;13444;50.562;7.262;2023-02-28T08:57:44;4.60;99.90
25550;DHT22;13444;50.562;7.262;2023-02-28T09:00:10;4.20;99.90
25550;DHT22;13444;50.562;7.262;2023-02-28T09:02:39;4.40;99.90
25550;DHT22;13444;50.562;7.262;2023-02-28T09:05:04;4.50;99.90
25550;DHT22;13444;50.562;7.262;2023-02-28T09:07:30;4.60;99.90
25550;DHT22;13444;50.562;7.262;2023-02-28T09:09:56;4.60;99.90
25550;DHT22;13444;50.562;7.262;2023-02-28T09:12:26;4.60;99.90
25550;DHT22;13444;50.562;7.262;2023-02-28T09:14:52;4.50;99.90
25550;DHT22;13444;50.562;7.262;2023-02-28T09:17:19;4.40;99.90
25550;DHT22;13444;50.562;7.262;2023-02-28T09:19:44;4.40;99.90
25550;DHT22;13444;50.562;7.262;2023-02-28T09:22:11;4.40;99.90
25550;DHT22;13444;50.562;7.262;2023-02-28T09:24:37;4.20;99.90
25550;DHT22;13444;50.562;7.262;2023-02-28T09:27:03;4.00;99.90
25550;DHT22;13444;50.562;7.262;2023-02-28T09:29:30;3.90;99.90
25550;DHT22;13444;50.562;7.262;2023-02-28T09:31:56;3.80;99.90
25550;DHT22;13444;50.562;7.262;2023-02-28T09:34:24;4.30;99.90
25550;DHT22;13444;50.562;7.262;2023-02-28T09:36:50;5.30;99.90
25550;DHT22;13444;50.562;7.262;2023-02-28T09:39:20;6.40;99.90
25550;DHT22;13444;50.562;7.262;2023-02-28T09:41:49;7.00;99.90
25550;DHT22;13444;50.562;7.262;2023-02-28T09:44:37;7.60;99.90
25550;DHT22;13444;50.562;7.262;2023-02-28T09:47:18;7.90;99.90
25550;DHT22;13444;50.562;7.262;2023-02-28T09:49:47;8.00;99.90
25550;DHT22;13444;50.562;7.262;2023-02-28T09:52:18;7.50;99.90
25550;DHT22;13444;50.562;7.262;2023-02-28T09:54:44;7.30;99.90
25550;DHT22;13444;50.562;7.262;2023-02-28T09:57:24;7.40;99.90
25550;DHT22;13444;50.562;7.262;2023-02-28T10:02:54;7.70;99.90
25550;DHT22;13444;50.562;7.262;2023-02-28T10:05:26;8.00;99.90
25550;DHT22;13444;50.562;7.262;2023-02-28T10:08:10;7.80;99.90
25550;DHT22;13444;50.562;7.262;2023-02-28T10:10:41;7.40;99.90
25550;DHT22;13444;50.562;7.262;2023-02-28T10:16:06;7.90;99.90
25550;DHT22;13444;50.562;7.262;2023-02-28T10:21:34;7.70;99.90
25550;DHT22;13444;50.562;7.262;2023-02-28T10:24:13;7.40;99.90
25550;DHT22;13444;50.562;7.262;2023-02-28T10:26:43;6.90;99.90
25550;DHT22;13444;50.562;7.262;2023-02-28T10:29:10;6.80;99.90
25550;DHT22;13444;50.562;7.262;2023-02-28T10:31:36;7.40;99.90
25550;DHT22;13444;50.562;7.262;2023-02-28T10:34:02;8.10;99.90
25550;DHT22;13444;50.562;7.262;2023-02-28T10:36:29;9.00;99.90
25550;DHT22;13444;50.562;7.262;2023-02-28T10:38:54;9.50;99.90
25550;DHT22;13444;50.562;7.262;2023-02-28T10:41:31;9.70;99.90
25550;DHT22;13444;50.562;7.262;2023-02-28T10:44:20;10.00;99.90
25550;DHT22;13444;50.562;7.262;2023-02-28T10:46:46;9.90;99.90
25550;DHT22;13444;50.562;7.262;2023-02-28T10:49:25;9.70;99.90
25550;DHT22;13444;50.562;7.262;2023-02-28T10:51:56;9.50;99.90
25550;DHT22;13444;50.562;7.262;2023-02-28T10:54:36;9.80;99.90
25550;DHT22;13444;50.562;7.262;2023-02-28T10:57:30;10.40;99.90
25550;DHT22;13444;50.562;7.262;2023-02-28T11:00:19;9.90;99.90
25550;DHT22;13444;50.562;7.262;2023-02-28T11:02:47;10.40;99.90
25550;DHT22;13444;50.562;7.262;2023-02-28T11:05:36;10.70;99.90
25550;DHT22;13444;50.562;7.262;2023-02-28T11:08:15;10.80;99.90
25550;DHT22;13444;50.562;7.262;2023-02-28T11:10:46;10.60;99.90
25550;DHT22;13444;50.562;7.262;2023-02-28T11:13:20;10.80;99.20
25550;DHT22;13444;50.562;7.262;2023-02-28T11:15:55;11.00;99.00
25550;DHT22;13444;50.562;7.262;2023-02-28T11:20:56;10.90;97.10
25550;DHT22;13444;50.562;7.262;2023-02-28T11:23:25;10.90;97.30
25550;DHT22;13444;50.562;7.262;2023-02-28T11:25:55;11.30;96.90
25550;DHT22;13444;50.562;7.262;2023-02-28T11:28:33;11.40;97.10
25550;DHT22;13444;50.562;7.262;2023-02-28T11:33:53;11.40;95.00
25550;DHT22;13444;50.562;7.262;2023-02-28T11:38:54;11.30;94.90
25550;DHT22;13444;50.562;7.262;2023-02-28T11:41:30;11.60;97.30
25550;DHT22;13444;50.562;7.262;2023-02-28T11:46:52;11.50;95.60
25550;DHT22;13444;50.562;7.262;2023-02-28T11:49:34;11.80;96.50
25550;DHT22;13444;50.562;7.262;2023-02-28T11:55:35;11.60;95.30
25550;DHT22;13444;50.562;7.262;2023-02-28T12:01:09;11.60;92.80
25550;DHT22;13444;50.562;7.262;2023-02-28T12:10:18;10.00;94.00
25550;DHT22;13444;50.562;7.262;2023-02-28T12:13:05;9.80;94.30
25550;DHT22;13444;50.562;7.262;2023-02-28T12:21:08;9.40;95.30
25550;DHT22;13444;50.562;7.262;2023-02-28T12:23:49;9.50;95.60
25550;DHT22;13444;50.562;7.262;2023-02-28T12:29:12;9.30;95.20
25550;DHT22;13444;50.562;7.262;2023-02-28T12:31:41;9.20;94.80
25550;DHT22;13444;50.562;7.262;2023-02-28T12:34:19;8.90;95.10
25550;DHT22;13444;50.562;7.262;2023-02-28T12:36:47;8.70;95.50
25550;DHT22;13444;50.562;7.262;2023-02-28T12:39:29;8.70;96.70
25550;DHT22;13444;50.562;7.262;2023-02-28T12:42:01;8.90;97.40
25550;DHT22;13444;50.562;7.262;2023-02-28T12:44:40;8.70;95.60
25550;DHT22;13444;50.562;7.262;2023-02-28T12:47:14;8.20;96.30
25550;DHT22;13444;50.562;7.262;2023-02-28T12:49:50;7.90;95.90
25550;DHT22;13444;50.562;7.262;2023-02-28T12:52:22;7.80;97.40
25550;DHT22;13444;50.562;7.262;2023-02-28T12:55:05;7.80;96.20
25550;DHT22;13444;50.562;7.262;2023-02-28T12:57:41;7.90;98.00
25550;DHT22;13444;50.562;7.262;2023-02-28T13:00:14;8.20;97.10
25550;DHT22;13444;50.562;7.262;2023-02-28T13:05:26;8.60;97.00
25550;DHT22;13444;50.562;7.262;2023-02-28T13:08:18;8.50;96.60
25550;DHT22;13444;50.562;7.262;2023-02-28T13:10:49;8.50;98.70
25550;DHT22;13444;50.562;7.262;2023-02-28T13:13:24;8.60;98.60
25550;DHT22;13444;50.562;7.262;2023-02-28T13:18:35;8.60;96.90
25550;DHT22;13444;50.562;7.262;2023-02-28T13:21:07;8.50;97.30
25550;DHT22;13444;50.562;7.262;2023-02-28T13:23:56;8.30;97.40
25550;DHT22;13444;50.562;7.262;2023-02-28T13:39:57;7.30;98.90
25550;DHT22;13444;50.562;7.262;2023-02-28T14:06:27;6.90;99.90
25550;DHT22;13444;50.562;7.262;2023-02-28T14:09:00;6.90;99.90
25550;DHT22;13444;50.562;7.262;2023-02-28T14:11:31;6.90;99.90
25550;DHT22;13444;50.562;7.262;2023-02-28T14:13:58;7.00;99.90
25550;DHT22;13444;50.562;7.262;2023-02-28T14:19:11;7.10;99.90
25550;DHT22;13444;50.562;7.262;2023-02-28T14:21:43;7.10;99.90
25550;DHT22;13444;50.562;7.262;2023-02-28T14:32:41;6.80;99.90
25550;DHT22;13444;50.562;7.262;2023-02-28T14:35:35;6.70;99.90
25550;DHT22;13444;50.562;7.262;2023-02-28T14:38:08;6.70;99.90
25550;DHT22;13444;50.562;7.262;2023-02-28T14:40:38;6.70;99.90
25550;DHT22;13444;50.562;7.262;2023-02-28T14:43:16;6.80;99.90
25550;DHT22;13444;50.562;7.262;2023-02-28T14:45:44;6.80;99.90
25550;DHT22;13444;50.562;7.262;2023-02-28T14:48:16;6.70;99.90
25550;DHT22;13444;50.562;7.262;2023-02-28T14:50:48;6.90;99.90
25550;DHT22;13444;50.562;7.262;2023-02-28T14:53:18;6.90;99.90
25550;DHT22;13444;50.562;7.262;2023-02-28T14:55:46;6.80;99.90
25550;DHT22;13444;50.562;7.262;2023-02-28T14:58:28;6.80;99.90
25550;DHT22;13444;50.562;7.262;2023-02-28T15:00:57;6.80;99.90
25550;DHT22;13444;50.562;7.262;2023-02-28T15:06:12;6.70;99.90
25550;DHT22;13444;50.562;7.262;2023-02-28T15:08:38;6.60;99.90
25550;DHT22;13444;50.562;7.262;2023-02-28T15:11:15;6.60;99.90
25550;DHT22;13444;50.562;7.262;2023-02-28T15:13:42;6.60;99.90
25550;DHT22;13444;50.562;7.262;2023-02-28T15:16:16;6.60;99.90
25550;DHT22;13444;50.562;7.262;2023-02-28T15:18:50;6.60;99.90
25550;DHT22;13444;50.562;7.262;2023-02-28T15:21:23;6.60;99.90
25550;DHT22;13444;50.562;7.262;2023-02-28T15:23:54;6.60;99.90
25550;DHT22;13444;50.562;7.262;2023-02-28T15:26:25;6.60;99.90
25550;DHT22;13444;50.562;7.262;2023-02-28T15:29:16;6.60;99.90
25550;DHT22;13444;50.562;7.262;2023-02-28T15:31:45;6.60;99.90
25550;DHT22;13444;50.562;7.262;2023-02-28T15:36:58;6.60;99.90
25550;DHT22;13444;50.562;7.262;2023-02-28T15:39:26;6.60;99.90
25550;DHT22;13444;50.562;7.262;2023-02-28T15:42:09;6.50;99.90
25550;DHT22;13444;50.562;7.262;2023-02-28T15:44:35;6.40;99.90
25550;DHT22;13444;50.562;7.262;2023-02-28T15:47:32;6.30;99.90
25550;DHT22;13444;50.562;7.262;2023-02-28T15:50:01;6.30;99.90
25550;DHT22;13444;50.562;7.262;2023-02-28T15:55:31;6.40;99.90
25550;DHT22;13444;50.562;7.262;2023-02-28T15:58:00;6.50;99.90
25550;DHT22;13444;50.562;7.262;2023-02-28T16:00:31;6.50;99.90
25550;DHT22;13444;50.562;7.262;2023-02-28T16:02:59;6.40;99.90
25550;DHT22;13444;50.562;7.262;2023-02-28T16:05:27;6.40;99.90
25550;DHT22;13444;50.562;7.262;2023-02-28T16:07:57;6.40;99.90
25550;DHT22;13444;50.562;7.262;2023-02-28T16:10:25;6.30;99.90
25550;DHT22;13444;50.562;7.262;2023-02-28T16:12:56;6.30;99.90
25550;DHT22;13444;50.562;7.262;2023-02-28T16:15:25;6.40;99.90
25550;DHT22;13444;50.562;7.262;2023-02-28T16:17:52;6.30;99.90
25550;DHT22;13444;50.562;7.262;2023-02-28T16:22:46;6.30;99.90
25550;DHT22;13444;50.562;7.262;2023-02-28T16:25:13;6.30;99.90
25550;DHT22;13444;50.562;7.262;2023-02-28T16:27:40;6.40;99.90
25550;DHT22;13444;50.562;7.262;2023-02-28T16:30:06;6.50;99.90
25550;DHT22;13444;50.562;7.262;2023-02-28T16:32:35;6.60;99.90
25550;DHT22;13444;50.562;7.262;2023-02-28T16:35:02;6.70;99.90
25550;DHT22;13444;50.562;7.262;2023-02-28T16:37:28;6.70;99.90
25550;DHT22;13444;50.562;7.262;2023-02-28T16:39:53;6.60;99.90
25550;DHT22;13444;50.562;7.262;2023-02-28T16:42:27;6.60;99.90
25550;DHT22;13444;50.562;7.262;2023-02-28T16:44:54;6.60;99.90
25550;DHT22;13444;50.562;7.262;2023-02-28T16:47:20;6.50;99.90
25550;DHT22;13444;50.562;7.262;2023-02-28T16:49:46;6.40;99.90
25550;DHT22;13444;50.562;7.262;2023-02-28T16:52:13;6.30;99.90
25550;DHT22;13444;50.562;7.262;2023-02-28T16:54:40;6.20;99.90
25550;DHT22;13444;50.562;7.262;2023-02-28T16:57:08;6.20;99.90
25550;DHT22;13444;50.562;7.262;2023-02-28T16:59:37;6.10;99.90
25550;DHT22;13444;50.562;7.262;2023-02-28T17:02:10;6.00;99.90
25550;DHT22;13444;50.562;7.262;2023-02-28T17:04:37;5.90;99.90
25550;DHT22;13444;50.562;7.262;2023-02-28T17:07:02;5.80;99.90
25550;DHT22;13444;50.562;7.262;2023-02-28T17:09:28;5.70;99.90
25550;DHT22;13444;50.562;7.262;2023-02-28T17:11:54;5.70;99.90
25550;DHT22;13444;50.562;7.262;2023-02-28T17:14:19;5.70;99.90
25550;DHT22;13444;50.562;7.262;2023-02-28T17:16:46;5.60;99.90
25550;DHT22;13444;50.562;7.262;2023-02-28T17:19:14;5.50;99.90
25550;DHT22;13444;50.562;7.262;2023-02-28T17:21:40;5.40;99.90
25550;DHT22;13444;50.562;7.262;2023-02-28T17:24:08;5.40;99.90
25550;DHT22;13444;50.562;7.262;2023-02-28T17:26:34;5.30;99.90
25550;DHT22;13444;50.562;7.262;2023-02-28T17:28:59;5.20;99.90
25550;DHT22;13444;50.562;7.262;2023-02-28T17:31:26;5.20;99.90
25550;DHT22;13444;50.562;7.262;2023-02-28T17:33:53;5.10;99.90
25550;DHT22;13444;50.562;7.262;2023-02-28T17:36:25;5.10;99.90
25550;DHT22;13444;50.562;7.262;2023-02-28T17:38:52;5.00;99.90
25550;DHT22;13444;50.562;7.262;2023-02-28T17:41:18;5.00;99.90
25550;DHT22;13444;50.562;7.262;2023-02-28T17:43:44;4.90;99.90
25550;DHT22;13444;50.562;7.262;2023-02-28T17:46:18;4.90;99.90
25550;DHT22;13444;50.562;7.262;2023-02-28T17:48:49;4.80;99.90
25550;DHT22;13444;50.562;7.262;2023-02-28T17:51:16;4.70;99.90
25550;DHT22;13444;50.562;7.262;2023-02-28T17:53:41;4.60;99.90
25550;DHT22;13444;50.562;7.262;2023-02-28T17:56:16;4.60;99.90
25550;DHT22;13444;50.562;7.262;2023-02-28T17:58:43;4.50;99.90
25550;DHT22;13444;50.562;7.262;2023-02-28T18:01:08;4.50;99.90